Time;durP1;ratioP1;P1;durP2;ratioP2;P2;SDS_P1;SDS_P2;PMS_P1;PMS_P2;Temp;Humidity;BMP_temperature;BMP_pressure;BME280_temperature;BME280_humidity;BME280_pressure;Samples;Min_cycle;Max_cycle;Signal;HPM_P1;HPM_P2
2023/05/22 00:00:38;;;;;;;38.88;16.20;;;;;;;;;;4971601;28;25070;-75
2023/05/22 00:03:04;;;;;;;28.50;15.88;;;;;;;;;;4969562;28;25063;-73
2023/05/22 00:05:30;;;;;;;31.63;16.55;;;;;;;;;;4969959;28;25078;-74
2023/05/22 00:07:56;;;;;;;33.00;16.63;;;;;;;;;;4969256;28;25056;-74
2023/05/22 00:10:22;;;;;;;34.50;16.55;;;;;;;;;;4970247;28;25055;-74
2023/05/22 00:12:49;;;;;;;37.35;16.58;;;;;;;;;;4970121;28;25125;-74
2023/05/22 00:15:15;;;;;;;31.13;16.25;;;;;;;;;;4971745;28;25058;-74
2023/05/22 00:17:41;;;;;;;33.15;16.05;;;;;;;;;;4971415;28;25141;-74
2023/05/22 00:20:09;;;;;;;30.98;14.80;;;;;;;;;;4971460;28;25130;-73
2023/05/22 00:22:35;;;;;;;32.05;15.07;;;;;;;;;;4968670;28;25170;-73
2023/05/22 00:25:02;;;;;;;30.55;15.10;;;;;;;;;;4973327;28;25095;-75
2023/05/22 00:27:28;;;;;;;37.85;16.00;;;;;;;;;;4971444;28;25066;-74
2023/05/22 00:29:54;;;;;;;37.50;16.70;;;;;;;;;;4971482;28;25059;-73
2023/05/22 00:32:20;;;;;;;29.50;15.70;;;;;;;;;;4969918;28;25094;-74
2023/05/22 00:34:46;;;;;;;37.60;17.48;;;;;;;;;;4972379;28;25166;-74
2023/05/22 00:37:12;;;;;;;33.47;17.15;;;;;;;;;;4973790;28;25068;-76
2023/05/22 00:39:38;;;;;;;36.50;17.20;;;;;;;;;;4974894;28;25110;-75
2023/05/22 00:42:04;;;;;;;30.73;17.13;;;;;;;;;;4970016;28;25088;-74
2023/05/22 00:44:30;;;;;;;35.33;17.75;;;;;;;;;;4964510;28;25059;-75
2023/05/22 00:46:56;;;;;;;37.17;17.17;;;;;;;;;;4970149;28;25082;-76
2023/05/22 00:49:22;;;;;;;38.13;17.13;;;;;;;;;;4969924;28;25074;-74
2023/05/22 00:51:48;;;;;;;42.38;17.67;;;;;;;;;;4971026;28;25076;-77
2023/05/22 00:54:15;;;;;;;40.00;18.30;;;;;;;;;;4970583;28;25072;-75
2023/05/22 00:56:41;;;;;;;40.78;17.90;;;;;;;;;;4971670;28;25049;-75
2023/05/22 00:59:07;;;;;;;42.80;17.92;;;;;;;;;;4970082;28;25170;-73
2023/05/22 01:01:37;;;;;;;45.97;18.17;;;;;;;;;;4971563;28;25162;-75
2023/05/22 01:04:06;;;;;;;35.53;17.23;;;;;;;;;;4972527;28;25105;-74
2023/05/22 01:06:32;;;;;;;47.63;19.15;;;;;;;;;;4970685;28;25163;-75
2023/05/22 01:08:58;;;;;;;34.03;15.93;;;;;;;;;;4969873;28;25083;-74
2023/05/22 01:11:31;;;;;;;34.05;15.98;;;;;;;;;;4970949;28;25111;-72
2023/05/22 01:14:07;;;;;;;36.47;16.85;;;;;;;;;;4969449;28;25128;-75
2023/05/22 01:16:39;;;;;;;41.58;15.65;;;;;;;;;;4969598;28;25050;-74
2023/05/22 01:19:24;;;;;;;36.65;16.85;;;;;;;;;;4968803;28;25103;-74
2023/05/22 01:22:04;;;;;;;30.95;16.90;;;;;;;;;;4970065;28;25066;-74
2023/05/22 01:24:30;;;;;;;36.58;16.63;;;;;;;;;;4969378;28;25054;-74
2023/05/22 01:27:13;;;;;;;34.88;16.13;;;;;;;;;;4973682;28;25054;-75
2023/05/22 01:29:45;;;;;;;31.05;14.98;;;;;;;;;;4975058;28;25154;-74
2023/05/22 01:32:14;;;;;;;34.35;14.95;;;;;;;;;;4978783;28;25064;-74
2023/05/22 01:34:42;;;;;;;29.48;15.18;;;;;;;;;;4980166;28;25071;-72
2023/05/22 01:37:09;;;;;;;27.75;14.48;;;;;;;;;;4978992;28;25079;-73
2023/05/22 01:39:36;;;;;;;34.80;16.38;;;;;;;;;;4972479;28;25073;-75
2023/05/22 01:42:02;;;;;;;32.83;16.10;;;;;;;;;;4978707;28;25076;-74
2023/05/22 01:44:28;;;;;;;38.78;15.85;;;;;;;;;;4978710;28;25071;-74
2023/05/22 01:46:55;;;;;;;36.30;16.70;;;;;;;;;;4975881;28;25068;-74
2023/05/22 01:49:21;;;;;;;44.45;16.55;;;;;;;;;;4972989;28;25050;-75
2023/05/22 01:51:52;;;;;;;42.30;17.73;;;;;;;;;;4970517;28;25079;-73
2023/05/22 01:54:18;;;;;;;37.35;15.52;;;;;;;;;;4971395;28;25049;-74
2023/05/22 01:56:47;;;;;;;32.88;15.68;;;;;;;;;;4973697;28;25071;-74
2023/05/22 01:59:19;;;;;;;34.72;15.23;;;;;;;;;;4972721;28;25118;-73
2023/05/22 02:01:46;;;;;;;31.02;15.15;;;;;;;;;;4974251;28;25071;-75
2023/05/22 02:04:13;;;;;;;39.30;16.25;;;;;;;;;;4974823;28;25073;-74
2023/05/22 02:06:40;;;;;;;31.80;15.82;;;;;;;;;;4970586;28;25060;-74
2023/05/22 02:09:06;;;;;;;29.77;14.80;;;;;;;;;;4970911;28;25056;-74
2023/05/22 02:11:33;;;;;;;27.50;14.68;;;;;;;;;;4976165;28;25058;-74
2023/05/22 02:14:00;;;;;;;36.22;15.38;;;;;;;;;;4979229;28;25093;-74
2023/05/22 02:16:27;;;;;;;32.90;14.80;;;;;;;;;;4978279;28;25169;-74
2023/05/22 02:19:04;;;;;;;37.03;14.95;;;;;;;;;;4977460;28;25093;-75
2023/05/22 02:21:32;;;;;;;30.45;14.15;;;;;;;;;;4988749;28;25086;-74
2023/05/22 02:23:58;;;;;;;30.73;14.70;;;;;;;;;;4993459;28;25072;-73
2023/05/22 02:26:23;;;;;;;34.78;14.90;;;;;;;;;;4978489;28;25101;-75
2023/05/22 02:28:49;;;;;;;31.30;15.63;;;;;;;;;;4969594;28;25105;-73
2023/05/22 02:31:17;;;;;;;31.60;15.52;;;;;;;;;;4975093;28;25062;-74
2023/05/22 02:33:43;;;;;;;28.63;13.70;;;;;;;;;;4973880;28;25058;-72
2023/05/22 02:36:11;;;;;;;34.17;14.98;;;;;;;;;;4978867;28;25045;-74
2023/05/22 02:38:37;;;;;;;30.55;14.32;;;;;;;;;;4978644;28;25050;-74
2023/05/22 02:41:03;;;;;;;29.10;12.85;;;;;;;;;;4976622;28;25078;-73
2023/05/22 02:43:29;;;;;;;34.05;15.07;;;;;;;;;;4971295;28;25054;-75
2023/05/22 02:45:55;;;;;;;31.10;13.82;;;;;;;;;;4970376;28;25071;-73
2023/05/22 02:48:21;;;;;;;32.72;14.35;;;;;;;;;;4975210;28;25098;-74
2023/05/22 02:50:47;;;;;;;36.53;16.80;;;;;;;;;;4970984;28;25048;-74
2023/05/22 02:53:14;;;;;;;36.30;15.40;;;;;;;;;;4967621;28;25086;-73
2023/05/22 02:55:40;;;;;;;35.75;16.15;;;;;;;;;;4977079;28;25147;-73
2023/05/22 02:58:10;;;;;;;38.10;16.52;;;;;;;;;;4981456;28;25063;-74
2023/05/22 03:00:38;;;;;;;33.88;16.48;;;;;;;;;;4979646;28;25060;-74
2023/05/22 03:03:05;;;;;;;35.88;14.77;;;;;;;;;;4980822;28;25071;-73
2023/05/22 03:05:32;;;;;;;42.47;16.52;;;;;;;;;;4974400;28;25071;-73
2023/05/22 03:07:58;;;;;;;36.78;16.10;;;;;;;;;;4970596;28;25063;-74
2023/05/22 03:10:24;;;;;;;40.80;15.82;;;;;;;;;;4975799;28;25180;-74
2023/05/22 03:12:53;;;;;;;34.05;16.73;;;;;;;;;;4970378;28;25089;-72
2023/05/22 03:15:19;;;;;;;30.52;14.65;;;;;;;;;;4970318;28;25092;-76
2023/05/22 03:17:45;;;;;;;32.95;15.77;;;;;;;;;;4971384;28;25075;-75
2023/05/22 03:20:15;;;;;;;33.92;15.50;;;;;;;;;;4971271;28;25099;-74
2023/05/22 03:22:41;;;;;;;36.65;16.52;;;;;;;;;;4969815;28;25063;-74
2023/05/22 03:25:08;;;;;;;27.83;15.30;;;;;;;;;;4971009;28;25097;-74
2023/05/22 03:27:34;;;;;;;40.17;17.05;;;;;;;;;;4971377;28;25115;-74
2023/05/22 03:30:00;;;;;;;41.88;16.52;;;;;;;;;;4974186;28;25124;-74
2023/05/22 03:32:26;;;;;;;42.63;17.42;;;;;;;;;;4970448;28;25093;-75
2023/05/22 03:34:52;;;;;;;35.03;16.92;;;;;;;;;;4969839;28;25058;-74
2023/05/22 03:37:18;;;;;;;40.80;17.05;;;;;;;;;;4971432;28;25121;-75
2023/05/22 03:39:45;;;;;;;40.88;17.27;;;;;;;;;;4972993;28;25088;-74
2023/05/22 03:42:12;;;;;;;41.20;17.30;;;;;;;;;;4973964;28;25100;-74
2023/05/22 03:44:38;;;;;;;33.70;16.05;;;;;;;;;;4972727;28;25170;-74
2023/05/22 03:47:04;;;;;;;38.17;17.88;;;;;;;;;;4967887;28;25048;-73
2023/05/22 03:49:30;;;;;;;33.13;17.08;;;;;;;;;;4972313;28;25068;-75
2023/05/22 03:51:56;;;;;;;51.00;19.23;;;;;;;;;;4969732;28;25148;-76
2023/05/22 03:54:22;;;;;;;41.50;17.98;;;;;;;;;;4967845;28;25075;-75
2023/05/22 03:56:48;;;;;;;42.15;18.95;;;;;;;;;;4972917;28;25067;-75
2023/05/22 03:59:15;;;;;;;44.65;19.27;;;;;;;;;;4968793;28;25073;-73
2023/05/22 04:01:41;;;;;;;40.22;18.00;;;;;;;;;;4970593;28;25054;-75
2023/05/22 04:04:08;;;;;;;38.17;17.75;;;;;;;;;;4970240;28;25079;-74
2023/05/22 04:06:41;;;;;;;47.08;18.83;;;;;;;;;;4974578;28;25056;-75
2023/05/22 04:09:11;;;;;;;45.88;20.08;;;;;;;;;;4967859;28;25128;-74
2023/05/22 04:11:41;;;;;;;41.85;19.55;;;;;;;;;;4973952;28;25056;-74
2023/05/22 04:14:07;;;;;;;45.05;19.95;;;;;;;;;;4969306;28;25055;-73
2023/05/22 04:16:33;;;;;;;52.28;21.05;;;;;;;;;;4981996;28;25122;-74
2023/05/22 04:19:02;;;;;;;41.08;20.63;;;;;;;;;;4973577;28;25069;-73
2023/05/22 04:21:28;;;;;;;42.42;18.23;;;;;;;;;;4973641;28;25101;-74
2023/05/22 04:23:54;;;;;;;45.78;20.42;;;;;;;;;;4971829;28;25104;-76
2023/05/22 04:26:20;;;;;;;46.80;21.08;;;;;;;;;;4973375;28;25076;-75
2023/05/22 04:28:47;;;;;;;49.67;20.75;;;;;;;;;;4970196;28;25077;-75
2023/05/22 04:31:13;;;;;;;41.92;20.50;;;;;;;;;;4971355;28;25073;-75
2023/05/22 04:33:39;;;;;;;48.00;24.85;;;;;;;;;;4970504;28;25066;-74
2023/05/22 04:36:07;;;;;;;47.65;22.70;;;;;;;;;;4973388;28;25073;-74
2023/05/22 04:38:35;;;;;;;48.80;24.25;;;;;;;;;;4973283;28;25066;-76
2023/05/22 04:41:02;;;;;;;53.85;24.70;;;;;;;;;;4976440;28;25064;-72
2023/05/22 04:43:28;;;;;;;54.58;26.20;;;;;;;;;;4974639;28;25063;-73
2023/05/22 04:45:55;;;;;;;54.80;24.52;;;;;;;;;;4975301;28;25070;-74
2023/05/22 04:48:21;;;;;;;55.78;25.13;;;;;;;;;;4980878;28;25090;-78
2023/05/22 04:50:48;;;;;;;55.90;24.38;;;;;;;;;;4978259;28;25049;-77
2023/05/22 04:53:15;;;;;;;57.63;24.88;;;;;;;;;;4977525;28;25095;-75
2023/05/22 04:55:41;;;;;;;53.42;24.33;;;;;;;;;;4974746;28;25090;-76
2023/05/22 04:58:07;;;;;;;61.72;26.10;;;;;;;;;;4970420;28;25101;-74
2023/05/22 05:00:33;;;;;;;59.92;25.85;;;;;;;;;;4973218;28;25048;-77
2023/05/22 05:02:59;;;;;;;59.97;26.13;;;;;;;;;;4971037;28;25060;-77
2023/05/22 05:05:25;;;;;;;58.50;27.67;;;;;;;;;;4974393;28;25120;-76
2023/05/22 05:07:52;;;;;;;59.22;23.77;;;;;;;;;;4973718;28;25097;-77
2023/05/22 05:10:18;;;;;;;51.25;24.30;;;;;;;;;;4974023;28;25091;-78
2023/05/22 05:12:44;;;;;;;64.72;24.17;;;;;;;;;;4954104;28;25073;-78
2023/05/22 05:15:11;;;;;;;64.38;24.65;;;;;;;;;;4974326;28;25062;-77
2023/05/22 05:17:37;;;;;;;47.15;22.27;;;;;;;;;;4977591;28;25085;-76
2023/05/22 05:20:05;;;;;;;43.67;22.92;;;;;;;;;;4974337;28;25165;-76
2023/05/22 05:22:31;;;;;;;44.67;22.35;;;;;;;;;;4969679;28;25070;-78
2023/05/22 05:24:58;;;;;;;59.63;22.67;;;;;;;;;;4977227;28;25074;-78
2023/05/22 05:27:24;;;;;;;54.25;21.23;;;;;;;;;;4982300;28;25080;-77
2023/05/22 05:29:50;;;;;;;47.72;19.70;;;;;;;;;;4975484;28;25067;-79
2023/05/22 05:32:16;;;;;;;43.97;19.25;;;;;;;;;;4974625;28;25128;-78
2023/05/22 05:34:42;;;;;;;54.50;21.98;;;;;;;;;;4973232;28;25089;-78
2023/05/22 05:37:08;;;;;;;48.08;20.58;;;;;;;;;;4974831;28;25077;-76
2023/05/22 05:39:34;;;;;;;44.20;19.42;;;;;;;;;;4981412;28;25082;-76
2023/05/22 05:42:00;;;;;;;44.90;20.15;;;;;;;;;;4973043;28;25062;-76
2023/05/22 05:44:27;;;;;;;48.28;20.65;;;;;;;;;;4970806;28;25068;-78
2023/05/22 05:46:53;;;;;;;49.00;22.15;;;;;;;;;;4973174;28;25056;-79
2023/05/22 05:49:19;;;;;;;47.88;21.30;;;;;;;;;;4986893;28;25138;-77
2023/05/22 05:51:45;;;;;;;52.17;22.50;;;;;;;;;;4980699;28;25075;-76
2023/05/22 05:54:11;;;;;;;46.53;21.52;;;;;;;;;;4973073;28;25054;-74
2023/05/22 05:56:37;;;;;;;45.72;19.92;;;;;;;;;;4974793;28;25105;-76
2023/05/22 05:59:03;;;;;;;48.25;20.30;;;;;;;;;;4971512;28;25067;-76
2023/05/22 06:01:31;;;;;;;53.83;20.98;;;;;;;;;;4972821;28;25073;-75
2023/05/22 06:04:01;;;;;;;43.00;20.23;;;;;;;;;;4970686;28;25056;-75
2023/05/22 06:06:28;;;;;;;50.15;20.42;;;;;;;;;;4967617;28;25136;-78
2023/05/22 06:08:54;;;;;;;53.63;21.17;;;;;;;;;;4970641;28;25093;-76
2023/05/22 06:11:21;;;;;;;47.08;18.85;;;;;;;;;;4974589;28;25051;-75
2023/05/22 06:13:47;;;;;;;47.08;19.67;;;;;;;;;;4974187;28;25072;-76
2023/05/22 06:16:13;;;;;;;42.10;20.70;;;;;;;;;;4975541;28;25096;-75
2023/05/22 06:18:39;;;;;;;42.90;18.95;;;;;;;;;;4973672;28;25058;-74
2023/05/22 06:21:06;;;;;;;46.50;17.85;;;;;;;;;;4981762;28;25092;-76
2023/05/22 06:23:32;;;;;;;40.95;19.10;;;;;;;;;;4984802;28;25088;-77
2023/05/22 06:25:58;;;;;;;43.13;18.38;;;;;;;;;;4986481;28;25075;-76
2023/05/22 06:28:24;;;;;;;44.92;18.13;;;;;;;;;;4978120;28;25081;-76
2023/05/22 06:30:50;;;;;;;36.00;19.05;;;;;;;;;;4975835;28;25128;-77
2023/05/22 06:33:16;;;;;;;43.58;18.50;;;;;;;;;;4973478;28;25055;-73
2023/05/22 06:35:42;;;;;;;40.05;18.45;;;;;;;;;;4974980;28;25076;-75
2023/05/22 06:38:08;;;;;;;52.00;17.98;;;;;;;;;;4972737;28;25083;-75
2023/05/22 06:40:34;;;;;;;42.10;19.98;;;;;;;;;;4975066;28;25161;-76
2023/05/22 06:43:01;;;;;;;38.45;17.95;;;;;;;;;;4972121;28;25140;-74
2023/05/22 06:45:27;;;;;;;41.40;19.02;;;;;;;;;;4970774;28;25158;-75
2023/05/22 06:47:53;;;;;;;34.50;17.27;;;;;;;;;;4958939;28;25064;-74
2023/05/22 06:50:20;;;;;;;41.15;18.52;;;;;;;;;;4963190;28;25062;-77
2023/05/22 06:52:46;;;;;;;33.80;17.45;;;;;;;;;;4960628;28;25156;-76
2023/05/22 06:55:12;;;;;;;39.03;19.50;;;;;;;;;;4963283;28;25164;-74
2023/05/22 06:57:38;;;;;;;44.00;18.27;;;;;;;;;;4959933;28;25051;-76
2023/05/22 07:00:08;;;;;;;41.00;18.45;;;;;;;;;;4968270;28;25063;-74
2023/05/22 07:02:34;;;;;;;42.85;20.20;;;;;;;;;;4963920;28;25167;-76
2023/05/22 07:05:00;;;;;;;48.55;20.73;;;;;;;;;;4962824;28;25066;-73
2023/05/22 07:07:26;;;;;;;44.47;20.80;;;;;;;;;;4958229;28;25153;-74
2023/05/22 07:09:52;;;;;;;46.85;19.58;;;;;;;;;;4962291;28;25122;-76
2023/05/22 07:12:19;;;;;;;40.03;18.92;;;;;;;;;;4960993;28;25058;-73
2023/05/22 07:14:45;;;;;;;46.88;21.02;;;;;;;;;;4960844;28;25096;-75
2023/05/22 07:17:11;;;;;;;46.25;21.77;;;;;;;;;;4959938;28;25139;-73
2023/05/22 07:19:37;;;;;;;49.80;22.15;;;;;;;;;;4963265;28;25137;-75
2023/05/22 07:22:03;;;;;;;42.97;21.95;;;;;;;;;;4961083;28;25144;-75
2023/05/22 07:24:29;;;;;;;48.88;22.25;;;;;;;;;;4961818;28;25052;-76
2023/05/22 07:26:55;;;;;;;60.25;23.45;;;;;;;;;;4962993;28;25086;-74
2023/05/22 07:29:21;;;;;;;42.55;22.02;;;;;;;;;;4957975;28;25082;-74
2023/05/22 07:31:47;;;;;;;47.08;22.85;;;;;;;;;;4961728;28;25083;-75
2023/05/22 07:34:13;;;;;;;40.05;19.92;;;;;;;;;;4962572;28;25074;-74
2023/05/22 07:36:39;;;;;;;47.10;22.98;;;;;;;;;;4961844;28;25054;-75
2023/05/22 07:39:05;;;;;;;45.67;20.77;;;;;;;;;;4960381;28;25082;-75
2023/05/22 07:41:31;;;;;;;42.85;21.35;;;;;;;;;;4962467;28;25083;-74
2023/05/22 07:43:57;;;;;;;44.65;21.98;;;;;;;;;;4959929;28;25075;-73
2023/05/22 07:46:23;;;;;;;45.22;22.00;;;;;;;;;;4962436;28;25145;-75
2023/05/22 07:48:49;;;;;;;41.05;21.27;;;;;;;;;;4960573;28;25054;-74
2023/05/22 07:51:15;;;;;;;52.03;23.17;;;;;;;;;;4964414;28;25136;-73
2023/05/22 07:53:41;;;;;;;47.03;22.52;;;;;;;;;;4962522;28;25070;-72
2023/05/22 07:56:07;;;;;;;46.47;23.25;;;;;;;;;;4961429;28;25085;-75
2023/05/22 07:58:33;;;;;;;51.17;22.58;;;;;;;;;;4965122;28;25077;-73
2023/05/22 08:01:00;;;;;;;46.55;22.65;;;;;;;;;;4974016;28;25133;-73
2023/05/22 08:03:26;;;;;;;41.58;21.00;;;;;;;;;;4973527;28;25082;-74
2023/05/22 08:05:52;;;;;;;45.88;23.45;;;;;;;;;;4979108;28;25067;-76
2023/05/22 08:08:18;;;;;;;47.40;22.80;;;;;;;;;;4976681;28;25049;-73
2023/05/22 08:10:44;;;;;;;43.42;21.42;;;;;;;;;;4971130;28;25109;-74
2023/05/22 08:13:11;;;;;;;42.95;22.00;;;;;;;;;;4973971;28;25072;-75
2023/05/22 08:15:37;;;;;;;51.15;23.42;;;;;;;;;;4983277;28;25082;-75
2023/05/22 08:18:03;;;;;;;46.80;23.05;;;;;;;;;;4983937;28;25073;-76
2023/05/22 08:20:29;;;;;;;54.17;22.98;;;;;;;;;;4980333;28;25068;-76
2023/05/22 08:22:56;;;;;;;43.97;21.08;;;;;;;;;;4983003;28;25048;-75
2023/05/22 08:25:22;;;;;;;45.95;22.85;;;;;;;;;;4984483;28;25077;-75
2023/05/22 08:27:48;;;;;;;35.80;19.40;;;;;;;;;;4984230;28;25073;-72
2023/05/22 08:30:14;;;;;;;42.97;22.10;;;;;;;;;;4972922;28;25060;-75
2023/05/22 08:32:40;;;;;;;40.33;20.90;;;;;;;;;;4967050;28;25055;-73
2023/05/22 08:35:06;;;;;;;44.55;20.92;;;;;;;;;;4966542;28;25085;-74
2023/05/22 08:37:32;;;;;;;39.80;21.02;;;;;;;;;;4961192;28;25065;-76
2023/05/22 08:39:58;;;;;;;37.58;19.75;;;;;;;;;;4965766;28;25072;-74
2023/05/22 08:42:24;;;;;;;41.75;20.90;;;;;;;;;;4961361;28;25099;-74
2023/05/22 08:44:50;;;;;;;38.90;20.05;;;;;;;;;;4963009;28;25093;-75
2023/05/22 08:47:17;;;;;;;35.60;21.27;;;;;;;;;;4958856;28;25089;-76
2023/05/22 08:49:43;;;;;;;39.20;21.15;;;;;;;;;;4960435;28;25056;-73
2023/05/22 08:52:14;;;;;;;42.30;19.45;;;;;;;;;;4959370;28;25146;-74
2023/05/22 08:54:44;;;;;;;34.20;17.52;;;;;;;;;;4959388;28;25050;-74
2023/05/22 08:57:10;;;;;;;39.67;19.70;;;;;;;;;;4960408;28;25087;-75
2023/05/22 08:59:38;;;;;;;35.90;19.90;;;;;;;;;;4962962;28;25067;-73
2023/05/22 09:02:04;;;;;;;41.22;20.80;;;;;;;;;;4960559;28;25043;-77
2023/05/22 09:04:30;;;;;;;39.20;19.95;;;;;;;;;;4960878;28;25113;-75
2023/05/22 09:06:56;;;;;;;42.50;21.60;;;;;;;;;;4964100;28;25186;-75
2023/05/22 09:09:22;;;;;;;32.60;18.40;;;;;;;;;;4959787;28;25149;-75
2023/05/22 09:11:49;;;;;;;42.55;19.58;;;;;;;;;;4964721;28;25102;-75
2023/05/22 09:14:15;;;;;;;34.13;19.25;;;;;;;;;;4962963;28;25072;-75
2023/05/22 09:16:48;;;;;;;36.95;18.00;;;;;;;;;;4962242;28;25147;-75
2023/05/22 09:19:14;;;;;;;34.45;17.98;;;;;;;;;;4959693;28;25065;-74
2023/05/22 09:21:40;;;;;;;42.90;17.92;;;;;;;;;;4962115;28;25054;-73
2023/05/22 09:24:10;;;;;;;33.70;17.40;;;;;;;;;;4964484;28;25062;-74
2023/05/22 09:26:38;;;;;;;31.33;16.23;;;;;;;;;;4971878;28;25057;-73
2023/05/22 09:29:04;;;;;;;27.50;14.57;;;;;;;;;;4970656;28;25052;-73
2023/05/22 09:31:30;;;;;;;26.20;15.85;;;;;;;;;;4968884;28;25079;-75
2023/05/22 09:33:58;;;;;;;31.70;17.38;;;;;;;;;;4965256;28;25071;-75
2023/05/22 09:36:32;;;;;;;25.77;14.82;;;;;;;;;;4964157;28;25068;-73
2023/05/22 09:39:00;;;;;;;33.85;16.17;;;;;;;;;;4961839;28;25060;-74
2023/05/22 09:41:27;;;;;;;33.45;17.63;;;;;;;;;;4971198;28;25072;-74
2023/05/22 09:43:53;;;;;;;32.55;16.13;;;;;;;;;;4973637;28;25077;-72
2023/05/22 09:46:19;;;;;;;26.55;13.02;;;;;;;;;;4970556;28;25057;-75
2023/05/22 09:48:50;;;;;;;25.80;14.73;;;;;;;;;;4963669;28;25158;-76
2023/05/22 09:51:17;;;;;;;29.98;15.45;;;;;;;;;;4968544;28;25057;-77
2023/05/22 09:53:43;;;;;;;36.80;16.17;;;;;;;;;;4969192;28;25065;-76
2023/05/22 09:56:12;;;;;;;26.45;14.55;;;;;;;;;;4966475;28;25095;-76
2023/05/22 09:58:40;;;;;;;23.85;14.38;;;;;;;;;;4964898;28;25145;-74
2023/05/22 10:01:09;;;;;;;31.48;13.73;;;;;;;;;;4967408;28;25126;-76
2023/05/22 10:03:36;;;;;;;35.05;15.82;;;;;;;;;;4965837;28;25069;-74
2023/05/22 10:06:02;;;;;;;28.58;14.63;;;;;;;;;;4962986;28;25081;-73
2023/05/22 10:08:28;;;;;;;26.85;14.65;;;;;;;;;;4977025;28;25101;-74
2023/05/22 10:10:54;;;;;;;27.80;13.55;;;;;;;;;;4966379;28;25053;-73
2023/05/22 10:13:21;;;;;;;23.35;14.40;;;;;;;;;;4962073;28;24972;-75
2023/05/22 10:15:48;;;;;;;31.52;13.50;;;;;;;;;;4965843;28;25059;-75
2023/05/22 10:18:15;;;;;;;27.38;14.40;;;;;;;;;;4962128;28;25048;-74
2023/05/22 10:20:41;;;;;;;28.35;14.90;;;;;;;;;;4964614;28;25069;-75
2023/05/22 10:23:08;;;;;;;28.45;12.63;;;;;;;;;;4960657;28;25125;-74
2023/05/22 10:25:37;;;;;;;35.08;14.82;;;;;;;;;;4963491;28;25097;-76
2023/05/22 10:28:03;;;;;;;29.45;14.05;;;;;;;;;;4958658;28;25049;-74
2023/05/22 10:30:47;;;;;;;33.45;14.65;;;;;;;;;;4962235;28;25181;-75
2023/05/22 10:33:19;;;;;;;33.97;15.32;;;;;;;;;;4961576;28;25153;-75
2023/05/22 10:36:03;;;;;;;35.92;16.85;;;;;;;;;;4963586;28;25065;-74
2023/05/22 10:38:48;;;;;;;33.83;17.05;;;;;;;;;;4959564;28;25086;-77
2023/05/22 10:41:15;;;;;;;38.30;19.17;;;;;;;;;;4962875;28;25161;-74
2023/05/22 10:43:41;;;;;;;31.15;19.88;;;;;;;;;;4961267;28;25081;-76
2023/05/22 10:46:08;;;;;;;39.95;20.60;;;;;;;;;;4962978;28;25069;-74
2023/05/22 10:48:42;;;;;;;43.38;22.77;;;;;;;;;;4961414;28;25061;-74
2023/05/22 10:51:08;;;;;;;45.10;24.02;;;;;;;;;;4963058;28;25129;-75
2023/05/22 10:53:35;;;;;;;48.78;24.30;;;;;;;;;;4969618;28;25178;-73
2023/05/22 10:56:13;;;;;;;41.65;24.10;;;;;;;;;;4970395;28;25066;-73
2023/05/22 10:58:41;;;;;;;44.33;22.92;;;;;;;;;;4972261;28;25085;-79
2023/05/22 11:01:20;;;;;;;47.97;23.52;;;;;;;;;;4968716;28;25090;-74
2023/05/22 11:03:53;;;;;;;40.33;21.88;;;;;;;;;;4966240;28;25058;-73
2023/05/22 11:06:38;;;;;;;45.30;22.58;;;;;;;;;;4970441;28;25075;-75
2023/05/22 11:09:23;;;;;;;48.92;22.10;;;;;;;;;;4971186;28;25072;-72
2023/05/22 11:12:09;;;;;;;44.22;22.60;;;;;;;;;;4972725;28;25056;-73
2023/05/22 11:14:36;;;;;;;38.47;20.58;;;;;;;;;;4971792;28;25063;-76
2023/05/22 11:17:02;;;;;;;41.85;20.45;;;;;;;;;;4969449;28;25073;-75
2023/05/22 11:19:28;;;;;;;35.05;19.35;;;;;;;;;;4970789;28;25144;-76
2023/05/22 11:21:59;;;;;;;40.70;20.58;;;;;;;;;;4969423;28;25145;-73
2023/05/22 11:24:26;;;;;;;50.42;20.83;;;;;;;;;;4968328;28;25155;-75
2023/05/22 11:27:02;;;;;;;36.35;19.70;;;;;;;;;;4968628;28;25060;-76
2023/05/22 11:29:28;;;;;;;38.45;19.73;;;;;;;;;;4972950;28;25051;-73
2023/05/22 11:31:56;;;;;;;41.83;20.08;;;;;;;;;;4977584;28;25063;-73
2023/05/22 11:34:22;;;;;;;43.58;21.00;;;;;;;;;;4970484;28;25060;-74
2023/05/22 11:36:48;;;;;;;39.33;18.98;;;;;;;;;;4968087;28;25057;-73
2023/05/22 11:39:14;;;;;;;36.25;19.73;;;;;;;;;;4967161;28;25053;-75
2023/05/22 11:41:40;;;;;;;40.75;19.52;;;;;;;;;;4968711;28;25174;-71
2023/05/22 11:44:07;;;;;;;39.40;19.60;;;;;;;;;;4969800;28;25081;-75
2023/05/22 11:46:33;;;;;;;38.50;16.70;;;;;;;;;;4970023;28;25091;-72
2023/05/22 11:49:00;;;;;;;40.38;18.73;;;;;;;;;;4968160;28;25060;-73
2023/05/22 11:51:27;;;;;;;30.75;17.20;;;;;;;;;;4967828;28;25171;-73
2023/05/22 11:53:54;;;;;;;32.13;16.02;;;;;;;;;;4967416;28;25072;-73
2023/05/22 11:56:21;;;;;;;29.75;16.67;;;;;;;;;;4968575;28;25066;-73
2023/05/22 11:58:48;;;;;;;34.95;16.75;;;;;;;;;;4965832;28;25040;-71
2023/05/22 12:01:14;;;;;;;33.88;15.13;;;;;;;;;;4968829;28;25062;-72
2023/05/22 12:03:40;;;;;;;30.38;16.15;;;;;;;;;;4967429;28;25069;-72
2023/05/22 12:06:07;;;;;;;28.15;13.80;;;;;;;;;;4971230;28;25142;-73
2023/05/22 12:08:33;;;;;;;32.65;15.68;;;;;;;;;;4968256;28;25071;-72
2023/05/22 12:10:59;;;;;;;34.13;14.55;;;;;;;;;;4974140;28;25092;-73
2023/05/22 12:13:29;;;;;;;28.55;16.08;;;;;;;;;;4967981;28;25132;-77
2023/05/22 12:15:59;;;;;;;34.50;14.80;;;;;;;;;;4968336;28;25056;-76
2023/05/22 12:18:25;;;;;;;36.10;14.82;;;;;;;;;;4967320;28;25086;-75
2023/05/22 12:20:53;;;;;;;27.30;13.88;;;;;;;;;;4969028;28;25128;-73
2023/05/22 12:23:22;;;;;;;37.03;15.30;;;;;;;;;;4967694;28;25063;-76
2023/05/22 12:25:55;;;;;;;36.03;14.25;;;;;;;;;;4969724;28;25085;-75
2023/05/22 12:28:21;;;;;;;35.75;14.55;;;;;;;;;;4966572;28;25075;-76
2023/05/22 12:30:52;;;;;;;26.77;14.32;;;;;;;;;;4969559;28;25125;-79
2023/05/22 12:33:19;;;;;;;37.28;14.45;;;;;;;;;;4973444;28;25155;-74
2023/05/22 12:35:45;;;;;;;39.17;14.65;;;;;;;;;;4982134;28;25075;-74
2023/05/22 12:38:12;;;;;;;38.85;15.70;;;;;;;;;;4970152;28;25059;-73
2023/05/22 12:40:38;;;;;;;32.50;14.10;;;;;;;;;;4970967;28;25131;-75
2023/05/22 12:43:04;;;;;;;37.60;13.43;;;;;;;;;;4970464;28;25070;-72
2023/05/22 12:45:30;;;;;;;27.58;13.82;;;;;;;;;;4969265;28;25064;-72
2023/05/22 12:47:56;;;;;;;31.60;13.50;;;;;;;;;;4967397;28;25067;-74
2023/05/22 12:50:22;;;;;;;30.02;12.57;;;;;;;;;;4970213;28;25139;-74
2023/05/22 12:52:48;;;;;;;34.97;12.73;;;;;;;;;;4968380;28;25096;-73
2023/05/22 12:55:14;;;;;;;33.38;12.85;;;;;;;;;;4969870;28;25075;-72
2023/05/22 12:57:40;;;;;;;26.52;11.88;;;;;;;;;;4965823;28;26289;-72
2023/05/22 13:00:06;;;;;;;30.40;12.07;;;;;;;;;;4967686;28;25169;-75
2023/05/22 13:02:32;;;;;;;36.25;12.02;;;;;;;;;;4969989;28;25079;-73
2023/05/22 13:04:58;;;;;;;31.42;11.80;;;;;;;;;;4977360;28;25062;-73
2023/05/22 13:07:24;;;;;;;27.60;10.45;;;;;;;;;;4979313;28;25072;-75
2023/05/22 13:09:50;;;;;;;33.38;10.95;;;;;;;;;;4979491;28;25060;-72
2023/05/22 13:12:17;;;;;;;31.35;11.63;;;;;;;;;;4974763;28;25059;-74
2023/05/22 13:14:43;;;;;;;31.23;11.50;;;;;;;;;;4973409;28;25141;-75
2023/05/22 13:17:10;;;;;;;27.08;10.18;;;;;;;;;;4969579;28;25066;-72
2023/05/22 13:19:37;;;;;;;30.02;10.45;;;;;;;;;;4971218;28;25067;-72
2023/05/22 13:22:03;;;;;;;30.17;9.45;;;;;;;;;;4962922;28;25069;-75
2023/05/22 13:24:29;;;;;;;32.13;11.73;;;;;;;;;;4965551;28;25138;-74
2023/05/22 13:26:55;;;;;;;27.65;9.45;;;;;;;;;;4961521;28;25158;-73
2023/05/22 13:29:21;;;;;;;31.45;10.55;;;;;;;;;;4962357;28;25105;-73
2023/05/22 13:31:47;;;;;;;29.63;10.70;;;;;;;;;;4963897;28;25141;-72
2023/05/22 13:34:13;;;;;;;24.15;10.00;;;;;;;;;;4961384;28;25062;-73
2023/05/22 13:36:39;;;;;;;27.60;10.23;;;;;;;;;;4965211;28;25102;-72
2023/05/22 13:39:05;;;;;;;32.20;11.45;;;;;;;;;;4965074;28;25133;-77
2023/05/22 13:41:31;;;;;;;28.95;12.75;;;;;;;;;;4967174;28;25049;-73
2023/05/22 13:43:57;;;;;;;25.67;11.40;;;;;;;;;;4966307;28;25100;-75
2023/05/22 13:46:23;;;;;;;29.00;14.10;;;;;;;;;;4968562;28;25063;-74
2023/05/22 13:48:49;;;;;;;19.83;12.15;;;;;;;;;;4964672;28;25068;-71
2023/05/22 13:51:15;;;;;;;37.67;14.77;;;;;;;;;;4965652;28;25069;-70
2023/05/22 13:53:41;;;;;;;22.50;12.75;;;;;;;;;;4971093;28;25078;-73
2023/05/22 13:56:07;;;;;;;28.92;12.23;;;;;;;;;;4978047;28;25063;-71
2023/05/22 13:58:33;;;;;;;24.08;11.65;;;;;;;;;;4977257;28;25155;-74
2023/05/22 14:00:59;;;;;;;22.13;13.45;;;;;;;;;;4985481;28;25152;-76
2023/05/22 14:03:25;;;;;;;30.58;12.95;;;;;;;;;;4982877;28;25075;-74
2023/05/22 14:05:51;;;;;;;22.42;12.57;;;;;;;;;;4988425;28;25057;-74
2023/05/22 14:08:17;;;;;;;27.63;13.07;;;;;;;;;;4988205;28;25096;-76
2023/05/22 14:10:43;;;;;;;28.98;14.65;;;;;;;;;;4990190;28;25114;-76
2023/05/22 14:13:08;;;;;;;21.75;12.48;;;;;;;;;;4988477;28;25065;-74
2023/05/22 14:15:35;;;;;;;22.77;12.15;;;;;;;;;;4989325;28;25080;-75